sensor_id;sensor_type;location;lat;lon;timestamp;P1;durP1;ratioP1;P2;durP2;ratioP2
35540;SDS011;21650;48.840;9.162;2023-04-07T00:01:57;12.00;;;7.93;;
35540;SDS011;21650;48.840;9.162;2023-04-07T00:04:23;9.53;;;7.17;;
35540;SDS011;21650;48.840;9.162;2023-04-07T00:06:48;10.90;;;7.23;;
35540;SDS011;21650;48.840;9.162;2023-04-07T00:09:14;12.83;;;7.70;;
35540;SDS011;21650;48.840;9.162;2023-04-07T00:11:40;11.77;;;7.47;;
35540;SDS011;21650;48.840;9.162;2023-04-07T00:14:05;16.43;;;8.47;;
35540;SDS011;21650;48.840;9.162;2023-04-07T00:16:31;10.77;;;8.00;;
35540;SDS011;21650;48.840;9.162;2023-04-07T00:18:56;15.30;;;8.17;;
35540;SDS011;21650;48.840;9.162;2023-04-07T00:21:22;11.87;;;7.70;;
35540;SDS011;21650;48.840;9.162;2023-04-07T00:23:48;10.37;;;8.07;;
35540;SDS011;21650;48.840;9.162;2023-04-07T00:26:13;13.50;;;7.87;;
35540;SDS011;21650;48.840;9.162;2023-04-07T00:28:39;13.47;;;8.03;;
35540;SDS011;21650;48.840;9.162;2023-04-07T00:31:05;11.67;;;7.73;;
35540;SDS011;21650;48.840;9.162;2023-04-07T00:33:30;16.67;;;8.53;;
35540;SDS011;21650;48.840;9.162;2023-04-07T00:35:56;15.60;;;7.93;;
35540;SDS011;21650;48.840;9.162;2023-04-07T00:38:22;11.57;;;7.53;;
35540;SDS011;21650;48.840;9.162;2023-04-07T00:40:48;10.40;;;7.70;;
35540;SDS011;21650;48.840;9.162;2023-04-07T00:43:14;10.97;;;7.60;;
35540;SDS011;21650;48.840;9.162;2023-04-07T00:45:40;10.60;;;7.43;;
35540;SDS011;21650;48.840;9.162;2023-04-07T00:48:06;10.97;;;7.57;;
35540;SDS011;21650;48.840;9.162;2023-04-07T00:50:32;10.43;;;7.40;;
35540;SDS011;21650;48.840;9.162;2023-04-07T00:52:57;10.10;;;6.60;;
35540;SDS011;21650;48.840;9.162;2023-04-07T00:55:23;11.73;;;7.40;;
35540;SDS011;21650;48.840;9.162;2023-04-07T00:57:48;10.63;;;7.70;;
35540;SDS011;21650;48.840;9.162;2023-04-07T01:00:15;8.47;;;6.00;;
35540;SDS011;21650;48.840;9.162;2023-04-07T01:02:52;9.67;;;6.70;;
35540;SDS011;21650;48.840;9.162;2023-04-07T01:05:38;8.50;;;6.23;;
35540;SDS011;21650;48.840;9.162;2023-04-07T01:11:24;11.53;;;7.17;;
35540;SDS011;21650;48.840;9.162;2023-04-07T01:13:59;9.90;;;6.50;;
35540;SDS011;21650;48.840;9.162;2023-04-07T01:16:27;14.63;;;8.07;;
35540;SDS011;21650;48.840;9.162;2023-04-07T01:19:00;9.50;;;7.13;;
35540;SDS011;21650;48.840;9.162;2023-04-07T01:21:37;13.90;;;7.43;;
35540;SDS011;21650;48.840;9.162;2023-04-07T01:24:17;10.87;;;7.10;;
35540;SDS011;21650;48.840;9.162;2023-04-07T01:27:04;10.37;;;7.07;;
35540;SDS011;21650;48.840;9.162;2023-04-07T01:29:42;9.60;;;7.30;;
35540;SDS011;21650;48.840;9.162;2023-04-07T01:32:12;10.10;;;7.37;;
35540;SDS011;21650;48.840;9.162;2023-04-07T01:34:39;15.70;;;8.03;;
35540;SDS011;21650;48.840;9.162;2023-04-07T01:37:05;12.70;;;7.60;;
35540;SDS011;21650;48.840;9.162;2023-04-07T01:39:32;14.10;;;6.80;;
35540;SDS011;21650;48.840;9.162;2023-04-07T01:41:59;11.20;;;7.33;;
35540;SDS011;21650;48.840;9.162;2023-04-07T01:44:27;11.03;;;7.07;;
35540;SDS011;21650;48.840;9.162;2023-04-07T01:46:54;11.80;;;7.07;;
35540;SDS011;21650;48.840;9.162;2023-04-07T01:49:20;11.63;;;7.03;;
35540;SDS011;21650;48.840;9.162;2023-04-07T01:51:47;10.23;;;7.53;;
35540;SDS011;21650;48.840;9.162;2023-04-07T01:54:14;11.13;;;8.07;;
35540;SDS011;21650;48.840;9.162;2023-04-07T01:56:41;11.60;;;6.97;;
35540;SDS011;21650;48.840;9.162;2023-04-07T01:59:08;9.43;;;6.70;;
35540;SDS011;21650;48.840;9.162;2023-04-07T02:01:33;10.67;;;6.97;;
35540;SDS011;21650;48.840;9.162;2023-04-07T02:04:01;9.23;;;6.60;;
35540;SDS011;21650;48.840;9.162;2023-04-07T02:06:38;9.70;;;6.93;;
35540;SDS011;21650;48.840;9.162;2023-04-07T02:09:09;9.40;;;6.63;;
35540;SDS011;21650;48.840;9.162;2023-04-07T02:11:37;9.20;;;6.53;;
35540;SDS011;21650;48.840;9.162;2023-04-07T02:14:05;12.67;;;7.03;;
35540;SDS011;21650;48.840;9.162;2023-04-07T02:16:33;10.40;;;7.07;;
35540;SDS011;21650;48.840;9.162;2023-04-07T02:18:59;9.43;;;6.77;;
35540;SDS011;21650;48.840;9.162;2023-04-07T02:21:27;10.90;;;7.53;;
35540;SDS011;21650;48.840;9.162;2023-04-07T02:23:54;9.63;;;6.63;;
35540;SDS011;21650;48.840;9.162;2023-04-07T02:26:20;11.17;;;7.33;;
35540;SDS011;21650;48.840;9.162;2023-04-07T02:28:46;12.83;;;7.87;;
35540;SDS011;21650;48.840;9.162;2023-04-07T02:31:11;12.57;;;7.83;;
35540;SDS011;21650;48.840;9.162;2023-04-07T02:33:37;13.33;;;7.80;;
35540;SDS011;21650;48.840;9.162;2023-04-07T02:36:03;11.97;;;7.33;;
35540;SDS011;21650;48.840;9.162;2023-04-07T02:38:30;17.07;;;7.17;;
35540;SDS011;21650;48.840;9.162;2023-04-07T02:40:56;11.30;;;7.67;;
35540;SDS011;21650;48.840;9.162;2023-04-07T02:43:22;11.53;;;7.30;;
35540;SDS011;21650;48.840;9.162;2023-04-07T02:45:49;10.03;;;7.03;;
35540;SDS011;21650;48.840;9.162;2023-04-07T02:48:14;12.30;;;8.50;;
35540;SDS011;21650;48.840;9.162;2023-04-07T02:50:40;13.67;;;9.07;;
35540;SDS011;21650;48.840;9.162;2023-04-07T02:53:06;13.83;;;8.43;;
35540;SDS011;21650;48.840;9.162;2023-04-07T02:55:31;11.53;;;7.90;;
35540;SDS011;21650;48.840;9.162;2023-04-07T02:57:57;11.47;;;7.63;;
35540;SDS011;21650;48.840;9.162;2023-04-07T03:00:23;12.07;;;7.50;;
35540;SDS011;21650;48.840;9.162;2023-04-07T03:02:50;13.87;;;8.13;;
35540;SDS011;21650;48.840;9.162;2023-04-07T03:05:15;12.13;;;7.93;;
35540;SDS011;21650;48.840;9.162;2023-04-07T03:07:41;9.47;;;6.90;;
35540;SDS011;21650;48.840;9.162;2023-04-07T03:10:06;13.30;;;8.43;;
35540;SDS011;21650;48.840;9.162;2023-04-07T03:12:32;14.03;;;7.50;;
35540;SDS011;21650;48.840;9.162;2023-04-07T03:14:58;15.33;;;7.80;;
35540;SDS011;21650;48.840;9.162;2023-04-07T03:17:23;10.93;;;8.10;;
35540;SDS011;21650;48.840;9.162;2023-04-07T03:19:49;10.20;;;7.43;;
35540;SDS011;21650;48.840;9.162;2023-04-07T03:22:15;16.47;;;8.53;;
35540;SDS011;21650;48.840;9.162;2023-04-07T03:24:41;11.43;;;7.93;;
35540;SDS011;21650;48.840;9.162;2023-04-07T03:27:07;13.73;;;9.37;;
35540;SDS011;21650;48.840;9.162;2023-04-07T03:29:32;11.23;;;8.43;;
35540;SDS011;21650;48.840;9.162;2023-04-07T03:31:58;11.10;;;8.13;;
35540;SDS011;21650;48.840;9.162;2023-04-07T03:34:23;11.83;;;8.10;;
35540;SDS011;21650;48.840;9.162;2023-04-07T03:36:49;12.63;;;7.67;;
35540;SDS011;21650;48.840;9.162;2023-04-07T03:39:15;12.80;;;8.20;;
35540;SDS011;21650;48.840;9.162;2023-04-07T03:41:40;12.37;;;7.67;;
35540;SDS011;21650;48.840;9.162;2023-04-07T03:44:06;11.10;;;7.37;;
35540;SDS011;21650;48.840;9.162;2023-04-07T03:46:32;12.43;;;8.23;;
35540;SDS011;21650;48.840;9.162;2023-04-07T03:48:57;11.97;;;7.67;;
35540;SDS011;21650;48.840;9.162;2023-04-07T03:51:23;12.53;;;8.60;;
35540;SDS011;21650;48.840;9.162;2023-04-07T03:53:48;12.33;;;7.77;;
35540;SDS011;21650;48.840;9.162;2023-04-07T03:56:14;12.53;;;7.93;;
35540;SDS011;21650;48.840;9.162;2023-04-07T03:58:41;13.20;;;7.97;;
35540;SDS011;21650;48.840;9.162;2023-04-07T04:01:07;11.40;;;8.03;;
35540;SDS011;21650;48.840;9.162;2023-04-07T04:03:32;11.67;;;7.60;;
35540;SDS011;21650;48.840;9.162;2023-04-07T04:05:58;10.03;;;7.27;;
35540;SDS011;21650;48.840;9.162;2023-04-07T04:08:24;10.63;;;7.97;;
35540;SDS011;21650;48.840;9.162;2023-04-07T04:10:50;14.13;;;8.47;;
35540;SDS011;21650;48.840;9.162;2023-04-07T04:13:16;11.20;;;8.00;;
35540;SDS011;21650;48.840;9.162;2023-04-07T04:15:41;13.60;;;8.07;;
35540;SDS011;21650;48.840;9.162;2023-04-07T04:18:07;11.17;;;7.93;;
35540;SDS011;21650;48.840;9.162;2023-04-07T04:20:33;15.57;;;8.37;;
35540;SDS011;21650;48.840;9.162;2023-04-07T04:22:58;14.03;;;9.30;;
35540;SDS011;21650;48.840;9.162;2023-04-07T04:25:24;12.73;;;8.30;;
35540;SDS011;21650;48.840;9.162;2023-04-07T04:27:50;15.20;;;9.63;;
35540;SDS011;21650;48.840;9.162;2023-04-07T04:30:15;13.07;;;7.63;;
35540;SDS011;21650;48.840;9.162;2023-04-07T04:32:41;16.70;;;9.63;;
35540;SDS011;21650;48.840;9.162;2023-04-07T04:35:07;13.70;;;8.90;;
35540;SDS011;21650;48.840;9.162;2023-04-07T04:37:33;16.10;;;10.33;;
35540;SDS011;21650;48.840;9.162;2023-04-07T04:39:58;18.93;;;10.23;;
35540;SDS011;21650;48.840;9.162;2023-04-07T04:42:24;18.57;;;11.17;;
35540;SDS011;21650;48.840;9.162;2023-04-07T04:44:51;17.13;;;10.70;;
35540;SDS011;21650;48.840;9.162;2023-04-07T04:47:17;16.50;;;10.50;;
35540;SDS011;21650;48.840;9.162;2023-04-07T04:49:43;17.70;;;10.73;;
35540;SDS011;21650;48.840;9.162;2023-04-07T04:52:08;15.53;;;10.87;;
35540;SDS011;21650;48.840;9.162;2023-04-07T04:54:34;14.33;;;9.60;;
35540;SDS011;21650;48.840;9.162;2023-04-07T04:57:00;14.43;;;8.90;;
35540;SDS011;21650;48.840;9.162;2023-04-07T04:59:25;16.13;;;9.23;;
35540;SDS011;21650;48.840;9.162;2023-04-07T05:01:51;14.67;;;9.17;;
35540;SDS011;21650;48.840;9.162;2023-04-07T05:04:17;17.83;;;10.37;;
35540;SDS011;21650;48.840;9.162;2023-04-07T05:06:42;17.50;;;9.67;;
35540;SDS011;21650;48.840;9.162;2023-04-07T05:09:08;15.83;;;10.07;;
35540;SDS011;21650;48.840;9.162;2023-04-07T05:11:34;15.70;;;8.87;;
35540;SDS011;21650;48.840;9.162;2023-04-07T05:13:59;17.03;;;9.50;;
35540;SDS011;21650;48.840;9.162;2023-04-07T05:16:25;16.73;;;9.23;;
35540;SDS011;21650;48.840;9.162;2023-04-07T05:18:51;14.70;;;9.97;;
35540;SDS011;21650;48.840;9.162;2023-04-07T05:21:16;16.17;;;9.33;;
35540;SDS011;21650;48.840;9.162;2023-04-07T05:23:44;14.70;;;9.30;;
35540;SDS011;21650;48.840;9.162;2023-04-07T05:26:10;14.03;;;9.33;;
35540;SDS011;21650;48.840;9.162;2023-04-07T05:28:35;15.50;;;9.47;;
35540;SDS011;21650;48.840;9.162;2023-04-07T05:31:01;16.10;;;9.50;;
35540;SDS011;21650;48.840;9.162;2023-04-07T05:33:26;14.33;;;9.27;;
35540;SDS011;21650;48.840;9.162;2023-04-07T05:35:52;14.13;;;8.83;;
35540;SDS011;21650;48.840;9.162;2023-04-07T05:38:18;17.37;;;9.70;;
35540;SDS011;21650;48.840;9.162;2023-04-07T05:40:43;15.93;;;9.47;;
35540;SDS011;21650;48.840;9.162;2023-04-07T05:43:09;15.30;;;9.30;;
35540;SDS011;21650;48.840;9.162;2023-04-07T05:45:35;13.10;;;9.67;;
35540;SDS011;21650;48.840;9.162;2023-04-07T05:48:01;16.77;;;9.00;;
35540;SDS011;21650;48.840;9.162;2023-04-07T05:50:26;16.13;;;9.17;;
35540;SDS011;21650;48.840;9.162;2023-04-07T05:52:52;15.10;;;9.67;;
35540;SDS011;21650;48.840;9.162;2023-04-07T05:55:18;12.83;;;8.53;;
35540;SDS011;21650;48.840;9.162;2023-04-07T05:57:43;15.50;;;9.20;;
35540;SDS011;21650;48.840;9.162;2023-04-07T06:00:09;16.93;;;10.13;;
35540;SDS011;21650;48.840;9.162;2023-04-07T06:02:35;12.10;;;8.70;;
35540;SDS011;21650;48.840;9.162;2023-04-07T06:05:01;19.17;;;11.70;;
35540;SDS011;21650;48.840;9.162;2023-04-07T06:07:26;16.47;;;11.00;;
35540;SDS011;21650;48.840;9.162;2023-04-07T06:09:52;19.67;;;9.87;;
35540;SDS011;21650;48.840;9.162;2023-04-07T06:12:17;14.80;;;9.73;;
35540;SDS011;21650;48.840;9.162;2023-04-07T06:14:45;16.30;;;9.93;;
35540;SDS011;21650;48.840;9.162;2023-04-07T06:17:15;15.63;;;9.73;;
35540;SDS011;21650;48.840;9.162;2023-04-07T06:19:41;14.90;;;9.50;;
35540;SDS011;21650;48.840;9.162;2023-04-07T06:22:06;18.80;;;10.53;;
35540;SDS011;21650;48.840;9.162;2023-04-07T06:24:32;13.57;;;9.13;;
35540;SDS011;21650;48.840;9.162;2023-04-07T06:26:57;13.80;;;9.07;;
35540;SDS011;21650;48.840;9.162;2023-04-07T06:29:25;15.57;;;9.77;;
35540;SDS011;21650;48.840;9.162;2023-04-07T06:31:51;13.17;;;9.17;;
35540;SDS011;21650;48.840;9.162;2023-04-07T06:34:17;14.23;;;9.47;;
35540;SDS011;21650;48.840;9.162;2023-04-07T06:36:42;17.67;;;11.07;;
35540;SDS011;21650;48.840;9.162;2023-04-07T06:39:08;15.30;;;9.60;;
35540;SDS011;21650;48.840;9.162;2023-04-07T06:41:34;14.43;;;9.80;;
35540;SDS011;21650;48.840;9.162;2023-04-07T06:44:00;13.10;;;9.10;;
35540;SDS011;21650;48.840;9.162;2023-04-07T06:46:26;11.10;;;8.30;;
35540;SDS011;21650;48.840;9.162;2023-04-07T06:48:51;13.63;;;9.20;;
35540;SDS011;21650;48.840;9.162;2023-04-07T06:51:17;14.37;;;9.93;;
35540;SDS011;21650;48.840;9.162;2023-04-07T06:53:43;16.33;;;10.43;;
35540;SDS011;21650;48.840;9.162;2023-04-07T06:56:09;14.53;;;9.70;;
35540;SDS011;21650;48.840;9.162;2023-04-07T06:58:35;14.50;;;10.07;;
35540;SDS011;21650;48.840;9.162;2023-04-07T07:01:02;12.27;;;8.87;;
35540;SDS011;21650;48.840;9.162;2023-04-07T07:03:28;14.97;;;9.67;;
35540;SDS011;21650;48.840;9.162;2023-04-07T07:05:55;12.20;;;9.27;;
35540;SDS011;21650;48.840;9.162;2023-04-07T07:08:24;15.53;;;9.43;;
35540;SDS011;21650;48.840;9.162;2023-04-07T07:10:51;15.03;;;9.87;;
35540;SDS011;21650;48.840;9.162;2023-04-07T07:13:21;18.03;;;9.97;;
35540;SDS011;21650;48.840;9.162;2023-04-07T07:15:48;14.53;;;10.20;;
35540;SDS011;21650;48.840;9.162;2023-04-07T07:18:13;15.93;;;9.57;;
35540;SDS011;21650;48.840;9.162;2023-04-07T07:20:40;14.73;;;9.83;;
35540;SDS011;21650;48.840;9.162;2023-04-07T07:23:05;13.83;;;8.90;;
35540;SDS011;21650;48.840;9.162;2023-04-07T07:25:31;15.57;;;9.97;;
35540;SDS011;21650;48.840;9.162;2023-04-07T07:27:56;13.40;;;8.97;;
35540;SDS011;21650;48.840;9.162;2023-04-07T07:30:22;13.23;;;9.23;;
35540;SDS011;21650;48.840;9.162;2023-04-07T07:32:49;13.10;;;9.10;;
35540;SDS011;21650;48.840;9.162;2023-04-07T07:35:15;11.87;;;9.20;;
35540;SDS011;21650;48.840;9.162;2023-04-07T07:37:41;14.10;;;8.97;;
35540;SDS011;21650;48.840;9.162;2023-04-07T07:40:08;13.47;;;8.87;;
35540;SDS011;21650;48.840;9.162;2023-04-07T07:42:35;13.40;;;8.87;;
35540;SDS011;21650;48.840;9.162;2023-04-07T07:45:02;13.63;;;8.67;;
35540;SDS011;21650;48.840;9.162;2023-04-07T07:47:28;15.23;;;9.57;;
35540;SDS011;21650;48.840;9.162;2023-04-07T07:49:54;13.17;;;8.27;;
35540;SDS011;21650;48.840;9.162;2023-04-07T07:52:20;15.13;;;9.17;;
35540;SDS011;21650;48.840;9.162;2023-04-07T07:54:46;14.63;;;9.47;;
35540;SDS011;21650;48.840;9.162;2023-04-07T07:57:12;11.63;;;8.53;;
35540;SDS011;21650;48.840;9.162;2023-04-07T07:59:38;13.97;;;9.87;;
35540;SDS011;21650;48.840;9.162;2023-04-07T08:02:07;13.90;;;8.90;;
35540;SDS011;21650;48.840;9.162;2023-04-07T08:04:34;17.23;;;9.70;;
35540;SDS011;21650;48.840;9.162;2023-04-07T08:07:00;9.87;;;8.20;;
35540;SDS011;21650;48.840;9.162;2023-04-07T08:09:26;11.33;;;8.53;;
35540;SDS011;21650;48.840;9.162;2023-04-07T08:11:51;10.93;;;7.77;;
35540;SDS011;21650;48.840;9.162;2023-04-07T08:14:17;12.83;;;8.33;;
35540;SDS011;21650;48.840;9.162;2023-04-07T08:16:43;9.10;;;6.70;;
35540;SDS011;21650;48.840;9.162;2023-04-07T08:19:09;11.37;;;7.53;;
35540;SDS011;21650;48.840;9.162;2023-04-07T08:21:35;12.60;;;7.90;;
35540;SDS011;21650;48.840;9.162;2023-04-07T08:24:00;12.03;;;7.93;;
35540;SDS011;21650;48.840;9.162;2023-04-07T08:26:26;10.73;;;7.77;;
35540;SDS011;21650;48.840;9.162;2023-04-07T08:28:52;13.43;;;8.97;;
35540;SDS011;21650;48.840;9.162;2023-04-07T08:31:17;9.43;;;7.60;;
35540;SDS011;21650;48.840;9.162;2023-04-07T08:33:43;15.83;;;7.97;;
35540;SDS011;21650;48.840;9.162;2023-04-07T08:36:09;11.93;;;8.27;;
35540;SDS011;21650;48.840;9.162;2023-04-07T08:38:35;12.43;;;7.60;;
35540;SDS011;21650;48.840;9.162;2023-04-07T08:41:06;11.27;;;7.83;;
35540;SDS011;21650;48.840;9.162;2023-04-07T08:43:34;9.73;;;7.37;;
35540;SDS011;21650;48.840;9.162;2023-04-07T08:46:01;10.87;;;7.47;;
35540;SDS011;21650;48.840;9.162;2023-04-07T08:48:29;10.77;;;7.20;;
35540;SDS011;21650;48.840;9.162;2023-04-07T08:50:59;11.23;;;7.43;;
35540;SDS011;21650;48.840;9.162;2023-04-07T08:53:32;10.57;;;7.87;;
35540;SDS011;21650;48.840;9.162;2023-04-07T08:56:04;10.20;;;7.30;;
35540;SDS011;21650;48.840;9.162;2023-04-07T08:58:31;12.67;;;7.70;;
35540;SDS011;21650;48.840;9.162;2023-04-07T09:00:57;10.50;;;7.87;;
35540;SDS011;21650;48.840;9.162;2023-04-07T09:03:23;11.63;;;8.70;;
35540;SDS011;21650;48.840;9.162;2023-04-07T09:05:50;10.57;;;7.53;;
35540;SDS011;21650;48.840;9.162;2023-04-07T09:08:16;10.03;;;7.27;;
35540;SDS011;21650;48.840;9.162;2023-04-07T09:10:41;9.00;;;7.10;;
35540;SDS011;21650;48.840;9.162;2023-04-07T09:13:07;15.33;;;8.37;;
35540;SDS011;21650;48.840;9.162;2023-04-07T09:15:32;9.93;;;6.80;;
35540;SDS011;21650;48.840;9.162;2023-04-07T09:17:59;13.37;;;8.13;;
35540;SDS011;21650;48.840;9.162;2023-04-07T09:20:24;9.90;;;7.40;;
35540;SDS011;21650;48.840;9.162;2023-04-07T09:22:50;11.90;;;7.77;;
35540;SDS011;21650;48.840;9.162;2023-04-07T09:25:17;16.20;;;10.93;;
35540;SDS011;21650;48.840;9.162;2023-04-07T09:27:53;12.53;;;8.50;;
35540;SDS011;21650;48.840;9.162;2023-04-07T09:30:19;12.23;;;7.60;;
35540;SDS011;21650;48.840;9.162;2023-04-07T09:32:45;9.27;;;7.20;;
35540;SDS011;21650;48.840;9.162;2023-04-07T09:35:10;8.73;;;6.83;;
35540;SDS011;21650;48.840;9.162;2023-04-07T09:37:36;8.67;;;6.80;;
35540;SDS011;21650;48.840;9.162;2023-04-07T09:40:01;11.60;;;6.30;;
35540;SDS011;21650;48.840;9.162;2023-04-07T09:42:27;8.00;;;5.80;;
35540;SDS011;21650;48.840;9.162;2023-04-07T09:44:58;9.93;;;6.43;;
35540;SDS011;21650;48.840;9.162;2023-04-07T09:47:28;9.87;;;5.90;;
35540;SDS011;21650;48.840;9.162;2023-04-07T09:49:56;8.80;;;6.47;;
35540;SDS011;21650;48.840;9.162;2023-04-07T09:52:24;9.13;;;6.00;;
35540;SDS011;21650;48.840;9.162;2023-04-07T09:55:10;9.53;;;5.00;;
35540;SDS011;21650;48.840;9.162;2023-04-07T09:57:36;10.07;;;5.93;;
35540;SDS011;21650;48.840;9.162;2023-04-07T10:00:03;10.83;;;5.53;;
35540;SDS011;21650;48.840;9.162;2023-04-07T10:02:29;12.37;;;5.93;;
35540;SDS011;21650;48.840;9.162;2023-04-07T10:04:56;7.93;;;5.13;;
35540;SDS011;21650;48.840;9.162;2023-04-07T10:07:23;10.50;;;6.03;;
35540;SDS011;21650;48.840;9.162;2023-04-07T10:09:49;14.03;;;6.63;;
35540;SDS011;21650;48.840;9.162;2023-04-07T10:12:15;9.93;;;6.70;;
35540;SDS011;21650;48.840;9.162;2023-04-07T10:14:42;9.70;;;5.70;;
35540;SDS011;21650;48.840;9.162;2023-04-07T10:17:11;8.93;;;6.70;;
35540;SDS011;21650;48.840;9.162;2023-04-07T10:19:42;12.00;;;7.90;;
35540;SDS011;21650;48.840;9.162;2023-04-07T10:22:09;9.33;;;5.97;;
35540;SDS011;21650;48.840;9.162;2023-04-07T10:27:26;11.03;;;7.27;;
35540;SDS011;21650;48.840;9.162;2023-04-07T10:29:57;9.13;;;6.23;;
35540;SDS011;21650;48.840;9.162;2023-04-07T10:32:24;9.93;;;6.30;;
35540;SDS011;21650;48.840;9.162;2023-04-07T10:37:17;8.77;;;6.77;;
35540;SDS011;21650;48.840;9.162;2023-04-07T10:39:46;10.57;;;6.93;;
35540;SDS011;21650;48.840;9.162;2023-04-07T10:45:06;10.77;;;5.70;;
35540;SDS011;21650;48.840;9.162;2023-04-07T10:47:33;7.43;;;5.67;;
35540;SDS011;21650;48.840;9.162;2023-04-07T10:52:40;9.93;;;5.70;;
35540;SDS011;21650;48.840;9.162;2023-04-07T11:03:32;7.90;;;5.13;;
35540;SDS011;21650;48.840;9.162;2023-04-07T11:06:03;9.77;;;5.73;;
35540;SDS011;21650;48.840;9.162;2023-04-07T11:08:33;8.53;;;5.27;;
35540;SDS011;21650;48.840;9.162;2023-04-07T11:11:04;7.23;;;5.43;;
35540;SDS011;21650;48.840;9.162;2023-04-07T11:13:44;8.77;;;5.10;;
35540;SDS011;21650;48.840;9.162;2023-04-07T11:16:14;9.07;;;6.10;;
35540;SDS011;21650;48.840;9.162;2023-04-07T11:18:41;7.50;;;5.60;;
35540;SDS011;21650;48.840;9.162;2023-04-07T11:21:08;9.77;;;5.93;;
35540;SDS011;21650;48.840;9.162;2023-04-07T11:23:40;9.23;;;5.63;;
35540;SDS011;21650;48.840;9.162;2023-04-07T11:26:07;10.17;;;6.43;;
35540;SDS011;21650;48.840;9.162;2023-04-07T11:28:35;9.03;;;5.80;;
35540;SDS011;21650;48.840;9.162;2023-04-07T11:31:10;8.23;;;5.63;;
35540;SDS011;21650;48.840;9.162;2023-04-07T11:33:36;9.63;;;6.73;;
35540;SDS011;21650;48.840;9.162;2023-04-07T11:36:04;8.60;;;5.57;;
35540;SDS011;21650;48.840;9.162;2023-04-07T11:38:35;8.93;;;5.17;;
35540;SDS011;21650;48.840;9.162;2023-04-07T11:41:14;11.57;;;5.87;;
35540;SDS011;21650;48.840;9.162;2023-04-07T11:43:40;12.53;;;6.10;;
35540;SDS011;21650;48.840;9.162;2023-04-07T11:48:39;11.73;;;6.43;;
35540;SDS011;21650;48.840;9.162;2023-04-07T11:51:14;10.27;;;6.77;;
35540;SDS011;21650;48.840;9.162;2023-04-07T11:53:40;9.43;;;5.13;;
35540;SDS011;21650;48.840;9.162;2023-04-07T11:56:07;7.37;;;5.67;;
35540;SDS011;21650;48.840;9.162;2023-04-07T11:58:36;8.07;;;4.23;;
35540;SDS011;21650;48.840;9.162;2023-04-07T12:01:03;3.77;;;3.37;;
35540;SDS011;21650;48.840;9.162;2023-04-07T12:03:33;9.23;;;5.57;;
35540;SDS011;21650;48.840;9.162;2023-04-07T12:06:01;11.37;;;6.87;;
35540;SDS011;21650;48.840;9.162;2023-04-07T12:08:40;11.37;;;7.20;;
35540;SDS011;21650;48.840;9.162;2023-04-07T12:11:08;10.27;;;6.80;;
35540;SDS011;21650;48.840;9.162;2023-04-07T12:13:34;7.73;;;5.57;;
35540;SDS011;21650;48.840;9.162;2023-04-07T12:16:01;7.63;;;6.83;;
35540;SDS011;21650;48.840;9.162;2023-04-07T12:18:27;10.93;;;7.83;;
35540;SDS011;21650;48.840;9.162;2023-04-07T12:20:53;11.17;;;5.50;;
35540;SDS011;21650;48.840;9.162;2023-04-07T12:23:19;7.03;;;4.23;;
35540;SDS011;21650;48.840;9.162;2023-04-07T12:25:45;4.73;;;3.33;;
35540;SDS011;21650;48.840;9.162;2023-04-07T12:28:10;7.53;;;3.80;;
35540;SDS011;21650;48.840;9.162;2023-04-07T12:30:36;5.03;;;3.20;;
35540;SDS011;21650;48.840;9.162;2023-04-07T12:33:01;5.57;;;3.17;;
35540;SDS011;21650;48.840;9.162;2023-04-07T12:35:28;5.30;;;3.00;;
35540;SDS011;21650;48.840;9.162;2023-04-07T12:37:54;6.47;;;3.50;;
35540;SDS011;21650;48.840;9.162;2023-04-07T12:40:21;3.80;;;3.07;;
35540;SDS011;21650;48.840;9.162;2023-04-07T12:42:50;5.53;;;3.33;;
35540;SDS011;21650;48.840;9.162;2023-04-07T12:45:16;6.17;;;2.87;;
35540;SDS011;21650;48.840;9.162;2023-04-07T12:47:42;5.17;;;3.50;;
35540;SDS011;21650;48.840;9.162;2023-04-07T12:50:08;5.07;;;3.33;;
35540;SDS011;21650;48.840;9.162;2023-04-07T12:52:35;5.53;;;3.20;;
35540;SDS011;21650;48.840;9.162;2023-04-07T12:55:01;6.60;;;3.67;;
35540;SDS011;21650;48.840;9.162;2023-04-07T12:57:27;6.33;;;2.73;;
35540;SDS011;21650;48.840;9.162;2023-04-07T12:59:52;3.83;;;2.13;;
35540;SDS011;21650;48.840;9.162;2023-04-07T13:02:18;6.90;;;2.40;;
35540;SDS011;21650;48.840;9.162;2023-04-07T13:04:45;2.70;;;2.30;;
35540;SDS011;21650;48.840;9.162;2023-04-07T13:07:11;5.47;;;2.57;;
35540;SDS011;21650;48.840;9.162;2023-04-07T13:09:37;3.40;;;3.10;;
35540;SDS011;21650;48.840;9.162;2023-04-07T13:12:04;6.80;;;3.73;;
35540;SDS011;21650;48.840;9.162;2023-04-07T13:14:30;5.23;;;2.87;;
35540;SDS011;21650;48.840;9.162;2023-04-07T13:16:55;8.67;;;4.07;;
35540;SDS011;21650;48.840;9.162;2023-04-07T13:19:21;6.40;;;3.27;;
35540;SDS011;21650;48.840;9.162;2023-04-07T13:21:46;4.77;;;3.83;;
35540;SDS011;21650;48.840;9.162;2023-04-07T13:24:12;7.93;;;4.30;;
35540;SDS011;21650;48.840;9.162;2023-04-07T13:26:37;8.50;;;4.67;;
35540;SDS011;21650;48.840;9.162;2023-04-07T13:29:03;5.87;;;4.00;;
35540;SDS011;21650;48.840;9.162;2023-04-07T13:31:29;6.17;;;4.97;;
35540;SDS011;21650;48.840;9.162;2023-04-07T13:33:54;12.77;;;5.17;;
35540;SDS011;21650;48.840;9.162;2023-04-07T13:36:20;7.70;;;4.83;;
35540;SDS011;21650;48.840;9.162;2023-04-07T13:38:46;7.20;;;4.57;;
35540;SDS011;21650;48.840;9.162;2023-04-07T13:41:11;6.73;;;4.70;;
35540;SDS011;21650;48.840;9.162;2023-04-07T13:43:37;3.93;;;3.53;;
35540;SDS011;21650;48.840;9.162;2023-04-07T13:46:03;6.50;;;3.97;;
35540;SDS011;21650;48.840;9.162;2023-04-07T13:48:28;8.23;;;4.13;;
35540;SDS011;21650;48.840;9.162;2023-04-07T13:50:54;7.67;;;4.63;;
35540;SDS011;21650;48.840;9.162;2023-04-07T13:53:19;6.37;;;4.47;;
35540;SDS011;21650;48.840;9.162;2023-04-07T13:55:45;8.43;;;4.57;;
35540;SDS011;21650;48.840;9.162;2023-04-07T13:58:11;6.13;;;5.53;;
35540;SDS011;21650;48.840;9.162;2023-04-07T14:00:37;8.07;;;4.67;;
35540;SDS011;21650;48.840;9.162;2023-04-07T14:03:02;8.57;;;5.07;;
35540;SDS011;21650;48.840;9.162;2023-04-07T14:05:28;6.33;;;4.00;;
35540;SDS011;21650;48.840;9.162;2023-04-07T14:07:53;7.27;;;4.73;;
35540;SDS011;21650;48.840;9.162;2023-04-07T14:10:19;8.13;;;4.87;;
35540;SDS011;21650;48.840;9.162;2023-04-07T14:12:44;5.63;;;4.37;;
35540;SDS011;21650;48.840;9.162;2023-04-07T14:15:10;6.67;;;4.97;;
35540;SDS011;21650;48.840;9.162;2023-04-07T14:17:36;9.57;;;5.23;;
35540;SDS011;21650;48.840;9.162;2023-04-07T14:20:01;6.00;;;4.50;;
35540;SDS011;21650;48.840;9.162;2023-04-07T14:22:27;7.23;;;4.50;;
35540;SDS011;21650;48.840;9.162;2023-04-07T14:24:54;7.07;;;4.53;;
35540;SDS011;21650;48.840;9.162;2023-04-07T14:27:20;5.90;;;4.23;;
35540;SDS011;21650;48.840;9.162;2023-04-07T14:29:47;6.40;;;4.00;;
35540;SDS011;21650;48.840;9.162;2023-04-07T14:32:13;6.60;;;5.13;;
35540;SDS011;21650;48.840;9.162;2023-04-07T14:34:38;9.60;;;5.07;;
35540;SDS011;21650;48.840;9.162;2023-04-07T14:37:05;11.33;;;4.87;;
35540;SDS011;21650;48.840;9.162;2023-04-07T14:39:30;7.43;;;4.57;;
35540;SDS011;21650;48.840;9.162;2023-04-07T14:41:56;7.40;;;4.53;;
35540;SDS011;21650;48.840;9.162;2023-04-07T14:44:21;10.80;;;4.97;;
35540;SDS011;21650;48.840;9.162;2023-04-07T14:46:47;8.23;;;5.17;;
35540;SDS011;21650;48.840;9.162;2023-04-07T14:49:13;9.93;;;6.60;;
35540;SDS011;21650;48.840;9.162;2023-04-07T14:51:39;8.00;;;4.87;;
35540;SDS011;21650;48.840;9.162;2023-04-07T14:54:04;6.97;;;5.10;;
35540;SDS011;21650;48.840;9.162;2023-04-07T14:56:30;10.73;;;7.33;;
35540;SDS011;21650;48.840;9.162;2023-04-07T14:58:56;13.37;;;9.13;;
35540;SDS011;21650;48.840;9.162;2023-04-07T15:01:21;7.57;;;5.30;;